sensor_id;sensor_type;location;lat;lon;timestamp;P1;durP1;ratioP1;P2;durP2;ratioP2
33810;SDS011;20119;48.334;16.206;2023-10-08T00:01:07;8.70;;;3.30;;
33810;SDS011;20119;48.334;16.206;2023-10-08T00:03:40;5.70;;;3.50;;
33810;SDS011;20119;48.334;16.206;2023-10-08T00:06:13;6.93;;;3.50;;
33810;SDS011;20119;48.334;16.206;2023-10-08T00:08:40;8.82;;;3.88;;
33810;SDS011;20119;48.334;16.206;2023-10-08T00:11:07;8.57;;;3.55;;
33810;SDS011;20119;48.334;16.206;2023-10-08T00:13:36;7.75;;;3.42;;
33810;SDS011;20119;48.334;16.206;2023-10-08T00:16:05;6.97;;;3.28;;
33810;SDS011;20119;48.334;16.206;2023-10-08T00:18:35;6.78;;;3.70;;
33810;SDS011;20119;48.334;16.206;2023-10-08T00:21:04;9.18;;;3.60;;
33810;SDS011;20119;48.334;16.206;2023-10-08T00:23:42;6.43;;;3.72;;
33810;SDS011;20119;48.334;16.206;2023-10-08T00:26:15;6.80;;;3.40;;
33810;SDS011;20119;48.334;16.206;2023-10-08T00:28:53;8.52;;;3.67;;
33810;SDS011;20119;48.334;16.206;2023-10-08T00:31:21;7.20;;;3.47;;
33810;SDS011;20119;48.334;16.206;2023-10-08T00:33:51;6.75;;;3.95;;
33810;SDS011;20119;48.334;16.206;2023-10-08T00:36:20;8.80;;;3.88;;
33810;SDS011;20119;48.334;16.206;2023-10-08T00:38:49;6.20;;;3.70;;
33810;SDS011;20119;48.334;16.206;2023-10-08T00:41:17;6.85;;;4.10;;
33810;SDS011;20119;48.334;16.206;2023-10-08T00:43:46;7.93;;;3.80;;
33810;SDS011;20119;48.334;16.206;2023-10-08T00:46:14;7.10;;;3.70;;
33810;SDS011;20119;48.334;16.206;2023-10-08T00:48:48;9.13;;;4.00;;
33810;SDS011;20119;48.334;16.206;2023-10-08T00:51:17;8.25;;;3.90;;
33810;SDS011;20119;48.334;16.206;2023-10-08T00:53:54;6.40;;;3.90;;
33810;SDS011;20119;48.334;16.206;2023-10-08T00:56:30;6.97;;;4.00;;
33810;SDS011;20119;48.334;16.206;2023-10-08T00:59:15;6.43;;;4.15;;
33810;SDS011;20119;48.334;16.206;2023-10-08T01:01:46;7.97;;;4.03;;
33810;SDS011;20119;48.334;16.206;2023-10-08T01:04:16;7.55;;;4.05;;
33810;SDS011;20119;48.334;16.206;2023-10-08T01:06:47;7.88;;;4.03;;
33810;SDS011;20119;48.334;16.206;2023-10-08T01:09:20;7.88;;;4.15;;
33810;SDS011;20119;48.334;16.206;2023-10-08T01:12:08;7.55;;;4.43;;
33810;SDS011;20119;48.334;16.206;2023-10-08T01:14:40;9.02;;;3.90;;
33810;SDS011;20119;48.334;16.206;2023-10-08T01:17:08;7.57;;;4.05;;
33810;SDS011;20119;48.334;16.206;2023-10-08T01:19:38;6.03;;;4.25;;
33810;SDS011;20119;48.334;16.206;2023-10-08T01:22:08;10.75;;;4.25;;
33810;SDS011;20119;48.334;16.206;2023-10-08T01:24:42;9.38;;;4.20;;
33810;SDS011;20119;48.334;16.206;2023-10-08T01:27:09;7.88;;;3.97;;
33810;SDS011;20119;48.334;16.206;2023-10-08T01:29:37;6.32;;;4.35;;
33810;SDS011;20119;48.334;16.206;2023-10-08T01:32:04;7.85;;;4.07;;
33810;SDS011;20119;48.334;16.206;2023-10-08T01:34:36;7.93;;;3.78;;
33810;SDS011;20119;48.334;16.206;2023-10-08T01:37:04;9.05;;;4.32;;
33810;SDS011;20119;48.334;16.206;2023-10-08T01:39:36;8.48;;;3.75;;
33810;SDS011;20119;48.334;16.206;2023-10-08T01:42:04;7.80;;;4.10;;
33810;SDS011;20119;48.334;16.206;2023-10-08T01:44:32;6.25;;;3.97;;
33810;SDS011;20119;48.334;16.206;2023-10-08T01:47:00;10.70;;;4.35;;
33810;SDS011;20119;48.334;16.206;2023-10-08T01:49:28;8.07;;;4.20;;
33810;SDS011;20119;48.334;16.206;2023-10-08T01:51:58;8.68;;;3.90;;
33810;SDS011;20119;48.334;16.206;2023-10-08T01:54:32;9.88;;;4.22;;
33810;SDS011;20119;48.334;16.206;2023-10-08T01:57:02;7.07;;;3.85;;
33810;SDS011;20119;48.334;16.206;2023-10-08T01:59:30;8.30;;;3.90;;
33810;SDS011;20119;48.334;16.206;2023-10-08T02:01:57;6.75;;;4.13;;
33810;SDS011;20119;48.334;16.206;2023-10-08T02:04:24;7.00;;;3.97;;
33810;SDS011;20119;48.334;16.206;2023-10-08T02:06:51;7.80;;;4.20;;
33810;SDS011;20119;48.334;16.206;2023-10-08T02:09:19;12.00;;;4.40;;
33810;SDS011;20119;48.334;16.206;2023-10-08T02:11:51;6.95;;;3.88;;
33810;SDS011;20119;48.334;16.206;2023-10-08T02:14:20;8.77;;;3.95;;
33810;SDS011;20119;48.334;16.206;2023-10-08T02:16:47;7.47;;;3.90;;
33810;SDS011;20119;48.334;16.206;2023-10-08T02:19:17;5.45;;;3.45;;
33810;SDS011;20119;48.334;16.206;2023-10-08T02:21:52;9.75;;;4.03;;
33810;SDS011;20119;48.334;16.206;2023-10-08T02:24:19;11.57;;;4.18;;
33810;SDS011;20119;48.334;16.206;2023-10-08T02:26:49;10.15;;;3.92;;
33810;SDS011;20119;48.334;16.206;2023-10-08T02:29:17;9.05;;;3.88;;
33810;SDS011;20119;48.334;16.206;2023-10-08T02:31:45;6.43;;;3.83;;
33810;SDS011;20119;48.334;16.206;2023-10-08T02:34:13;7.95;;;3.75;;
33810;SDS011;20119;48.334;16.206;2023-10-08T02:36:40;6.65;;;3.90;;
33810;SDS011;20119;48.334;16.206;2023-10-08T02:39:07;8.65;;;3.58;;
33810;SDS011;20119;48.334;16.206;2023-10-08T02:41:41;10.85;;;3.75;;
33810;SDS011;20119;48.334;16.206;2023-10-08T02:44:11;10.45;;;3.92;;
33810;SDS011;20119;48.334;16.206;2023-10-08T02:51:37;7.72;;;3.70;;
33810;SDS011;20119;48.334;16.206;2023-10-08T02:54:06;8.18;;;4.18;;
33810;SDS011;20119;48.334;16.206;2023-10-08T02:56:41;9.75;;;4.28;;
33810;SDS011;20119;48.334;16.206;2023-10-08T02:59:10;8.38;;;3.85;;
33810;SDS011;20119;48.334;16.206;2023-10-08T03:01:37;9.15;;;4.03;;
33810;SDS011;20119;48.334;16.206;2023-10-08T03:04:05;10.18;;;3.67;;
33810;SDS011;20119;48.334;16.206;2023-10-08T03:06:41;9.30;;;3.75;;
33810;SDS011;20119;48.334;16.206;2023-10-08T03:09:08;9.35;;;4.05;;
33810;SDS011;20119;48.334;16.206;2023-10-08T03:11:38;7.60;;;4.20;;
33810;SDS011;20119;48.334;16.206;2023-10-08T03:14:11;9.38;;;3.92;;
33810;SDS011;20119;48.334;16.206;2023-10-08T03:16:47;8.10;;;3.97;;
33810;SDS011;20119;48.334;16.206;2023-10-08T03:19:15;8.93;;;3.80;;
33810;SDS011;20119;48.334;16.206;2023-10-08T03:21:46;4.93;;;3.60;;
33810;SDS011;20119;48.334;16.206;2023-10-08T03:24:22;10.10;;;3.97;;
33810;SDS011;20119;48.334;16.206;2023-10-08T03:27:04;7.60;;;3.65;;
33810;SDS011;20119;48.334;16.206;2023-10-08T03:29:45;7.47;;;3.53;;
33810;SDS011;20119;48.334;16.206;2023-10-08T03:32:13;8.82;;;3.90;;
33810;SDS011;20119;48.334;16.206;2023-10-08T03:34:45;10.00;;;3.83;;
33810;SDS011;20119;48.334;16.206;2023-10-08T03:37:14;7.05;;;3.85;;
33810;SDS011;20119;48.334;16.206;2023-10-08T03:39:46;7.50;;;3.58;;
33810;SDS011;20119;48.334;16.206;2023-10-08T03:42:32;10.30;;;3.95;;
33810;SDS011;20119;48.334;16.206;2023-10-08T03:45:05;7.82;;;3.88;;
33810;SDS011;20119;48.334;16.206;2023-10-08T03:47:37;11.00;;;3.63;;
33810;SDS011;20119;48.334;16.206;2023-10-08T03:50:06;10.90;;;3.92;;
33810;SDS011;20119;48.334;16.206;2023-10-08T03:52:36;7.13;;;3.90;;
33810;SDS011;20119;48.334;16.206;2023-10-08T03:55:04;6.78;;;3.90;;
33810;SDS011;20119;48.334;16.206;2023-10-08T03:57:38;6.00;;;3.80;;
33810;SDS011;20119;48.334;16.206;2023-10-08T04:00:09;11.43;;;4.10;;
33810;SDS011;20119;48.334;16.206;2023-10-08T04:02:43;7.07;;;4.18;;
33810;SDS011;20119;48.334;16.206;2023-10-08T04:05:20;8.85;;;4.30;;
33810;SDS011;20119;48.334;16.206;2023-10-08T04:07:53;10.63;;;4.20;;
33810;SDS011;20119;48.334;16.206;2023-10-08T04:10:44;8.43;;;4.10;;
33810;SDS011;20119;48.334;16.206;2023-10-08T04:13:31;6.63;;;4.18;;
33810;SDS011;20119;48.334;16.206;2023-10-08T04:15:58;7.03;;;4.00;;
33810;SDS011;20119;48.334;16.206;2023-10-08T04:18:29;7.88;;;3.50;;
33810;SDS011;20119;48.334;16.206;2023-10-08T04:20:57;10.25;;;4.25;;
33810;SDS011;20119;48.334;16.206;2023-10-08T04:23:31;9.60;;;4.10;;
33810;SDS011;20119;48.334;16.206;2023-10-08T04:26:03;8.82;;;4.20;;
33810;SDS011;20119;48.334;16.206;2023-10-08T04:28:31;8.63;;;4.20;;
33810;SDS011;20119;48.334;16.206;2023-10-08T04:31:00;7.35;;;4.20;;
33810;SDS011;20119;48.334;16.206;2023-10-08T04:33:41;7.82;;;3.78;;
33810;SDS011;20119;48.334;16.206;2023-10-08T04:36:08;8.70;;;4.00;;
33810;SDS011;20119;48.334;16.206;2023-10-08T04:38:36;9.52;;;4.10;;
33810;SDS011;20119;48.334;16.206;2023-10-08T04:41:05;9.73;;;4.20;;
33810;SDS011;20119;48.334;16.206;2023-10-08T04:43:35;9.38;;;4.00;;
33810;SDS011;20119;48.334;16.206;2023-10-08T04:46:04;7.95;;;3.85;;
33810;SDS011;20119;48.334;16.206;2023-10-08T04:48:31;9.50;;;4.30;;
33810;SDS011;20119;48.334;16.206;2023-10-08T04:50:58;6.63;;;3.75;;
33810;SDS011;20119;48.334;16.206;2023-10-08T04:53:27;7.32;;;3.85;;
33810;SDS011;20119;48.334;16.206;2023-10-08T04:56:03;13.57;;;4.20;;
33810;SDS011;20119;48.334;16.206;2023-10-08T04:58:31;10.85;;;3.90;;
33810;SDS011;20119;48.334;16.206;2023-10-08T05:01:05;7.80;;;3.97;;
33810;SDS011;20119;48.334;16.206;2023-10-08T05:03:52;7.57;;;4.10;;
33810;SDS011;20119;48.334;16.206;2023-10-08T05:06:33;9.75;;;4.38;;
33810;SDS011;20119;48.334;16.206;2023-10-08T05:09:25;8.00;;;3.90;;
33810;SDS011;20119;48.334;16.206;2023-10-08T05:12:06;7.82;;;4.20;;
33810;SDS011;20119;48.334;16.206;2023-10-08T05:14:53;8.43;;;3.90;;
33810;SDS011;20119;48.334;16.206;2023-10-08T05:17:42;9.65;;;4.18;;
33810;SDS011;20119;48.334;16.206;2023-10-08T05:20:23;7.70;;;4.15;;
33810;SDS011;20119;48.334;16.206;2023-10-08T05:23:09;10.45;;;4.47;;
33810;SDS011;20119;48.334;16.206;2023-10-08T05:25:46;8.80;;;3.70;;
33810;SDS011;20119;48.334;16.206;2023-10-08T05:28:24;13.90;;;4.30;;
33810;SDS011;20119;48.334;16.206;2023-10-08T05:30:50;8.10;;;4.20;;
33810;SDS011;20119;48.334;16.206;2023-10-08T05:33:20;9.00;;;4.20;;
33810;SDS011;20119;48.334;16.206;2023-10-08T05:35:51;10.30;;;4.40;;
33810;SDS011;20119;48.334;16.206;2023-10-08T05:38:27;11.07;;;4.50;;
33810;SDS011;20119;48.334;16.206;2023-10-08T05:41:13;7.10;;;4.43;;
33810;SDS011;20119;48.334;16.206;2023-10-08T05:43:57;8.75;;;4.30;;
33810;SDS011;20119;48.334;16.206;2023-10-08T05:46:49;13.43;;;4.40;;
33810;SDS011;20119;48.334;16.206;2023-10-08T05:49:34;8.63;;;4.28;;
33810;SDS011;20119;48.334;16.206;2023-10-08T05:52:19;9.38;;;4.85;;
33810;SDS011;20119;48.334;16.206;2023-10-08T05:55:03;7.57;;;4.53;;
33810;SDS011;20119;48.334;16.206;2023-10-08T05:57:44;8.95;;;4.10;;
33810;SDS011;20119;48.334;16.206;2023-10-08T06:00:19;9.43;;;4.93;;
33810;SDS011;20119;48.334;16.206;2023-10-08T06:03:03;9.80;;;4.32;;
33810;SDS011;20119;48.334;16.206;2023-10-08T06:05:46;10.07;;;4.93;;
33810;SDS011;20119;48.334;16.206;2023-10-08T06:08:29;12.98;;;6.28;;
33810;SDS011;20119;48.334;16.206;2023-10-08T06:11:14;8.90;;;4.20;;
33810;SDS011;20119;48.334;16.206;2023-10-08T06:13:52;7.82;;;4.30;;
33810;SDS011;20119;48.334;16.206;2023-10-08T06:16:26;8.80;;;4.63;;
33810;SDS011;20119;48.334;16.206;2023-10-08T06:19:08;7.18;;;4.30;;
33810;SDS011;20119;48.334;16.206;2023-10-08T06:21:38;8.27;;;4.28;;
33810;SDS011;20119;48.334;16.206;2023-10-08T06:24:06;10.27;;;4.40;;
33810;SDS011;20119;48.334;16.206;2023-10-08T06:26:37;6.50;;;4.15;;
33810;SDS011;20119;48.334;16.206;2023-10-08T06:29:09;7.53;;;4.07;;
33810;SDS011;20119;48.334;16.206;2023-10-08T06:31:53;7.85;;;4.60;;
33810;SDS011;20119;48.334;16.206;2023-10-08T06:34:20;14.02;;;5.10;;
33810;SDS011;20119;48.334;16.206;2023-10-08T06:36:48;7.75;;;4.05;;
33810;SDS011;20119;48.334;16.206;2023-10-08T06:41:50;9.43;;;5.28;;
33810;SDS011;20119;48.334;16.206;2023-10-08T06:44:18;8.98;;;4.57;;
33810;SDS011;20119;48.334;16.206;2023-10-08T06:46:45;10.02;;;4.30;;
33810;SDS011;20119;48.334;16.206;2023-10-08T06:49:15;10.60;;;5.85;;
33810;SDS011;20119;48.334;16.206;2023-10-08T06:51:43;11.05;;;4.85;;
33810;SDS011;20119;48.334;16.206;2023-10-08T06:54:11;11.43;;;4.97;;
33810;SDS011;20119;48.334;16.206;2023-10-08T06:56:39;9.00;;;3.92;;
33810;SDS011;20119;48.334;16.206;2023-10-08T06:59:11;8.85;;;3.67;;
33810;SDS011;20119;48.334;16.206;2023-10-08T07:01:38;8.68;;;3.70;;
33810;SDS011;20119;48.334;16.206;2023-10-08T07:04:05;7.78;;;3.70;;
33810;SDS011;20119;48.334;16.206;2023-10-08T07:06:38;12.57;;;3.83;;
33810;SDS011;20119;48.334;16.206;2023-10-08T07:09:06;9.82;;;3.88;;
33810;SDS011;20119;48.334;16.206;2023-10-08T07:11:47;9.30;;;3.83;;
33810;SDS011;20119;48.334;16.206;2023-10-08T07:14:16;12.07;;;3.90;;
33810;SDS011;20119;48.334;16.206;2023-10-08T07:16:43;11.20;;;3.63;;
33810;SDS011;20119;48.334;16.206;2023-10-08T07:19:12;10.13;;;3.65;;
33810;SDS011;20119;48.334;16.206;2023-10-08T07:21:45;8.77;;;3.67;;
33810;SDS011;20119;48.334;16.206;2023-10-08T07:24:12;10.50;;;3.70;;
33810;SDS011;20119;48.334;16.206;2023-10-08T07:26:42;8.35;;;3.90;;
33810;SDS011;20119;48.334;16.206;2023-10-08T07:29:13;10.88;;;3.65;;
33810;SDS011;20119;48.334;16.206;2023-10-08T07:31:42;7.90;;;3.60;;
33810;SDS011;20119;48.334;16.206;2023-10-08T07:34:14;12.13;;;3.75;;
33810;SDS011;20119;48.334;16.206;2023-10-08T07:36:52;8.73;;;3.72;;
33810;SDS011;20119;48.334;16.206;2023-10-08T07:39:21;13.13;;;3.80;;
33810;SDS011;20119;48.334;16.206;2023-10-08T07:41:59;9.38;;;3.42;;
33810;SDS011;20119;48.334;16.206;2023-10-08T07:44:27;9.07;;;3.88;;
33810;SDS011;20119;48.334;16.206;2023-10-08T07:46:55;8.73;;;3.67;;
33810;SDS011;20119;48.334;16.206;2023-10-08T07:49:22;7.82;;;3.70;;
33810;SDS011;20119;48.334;16.206;2023-10-08T07:51:51;10.10;;;3.75;;
33810;SDS011;20119;48.334;16.206;2023-10-08T07:54:19;11.55;;;3.88;;
33810;SDS011;20119;48.334;16.206;2023-10-08T07:56:47;12.57;;;3.47;;
33810;SDS011;20119;48.334;16.206;2023-10-08T07:59:16;12.07;;;3.35;;
33810;SDS011;20119;48.334;16.206;2023-10-08T08:01:43;9.40;;;3.47;;
33810;SDS011;20119;48.334;16.206;2023-10-08T08:04:10;13.32;;;3.40;;
33810;SDS011;20119;48.334;16.206;2023-10-08T08:06:46;12.40;;;3.40;;
33810;SDS011;20119;48.334;16.206;2023-10-08T08:09:16;12.15;;;3.70;;
33810;SDS011;20119;48.334;16.206;2023-10-08T08:11:45;8.80;;;3.30;;
33810;SDS011;20119;48.334;16.206;2023-10-08T08:14:12;13.50;;;3.65;;
33810;SDS011;20119;48.334;16.206;2023-10-08T08:16:42;9.95;;;3.40;;
33810;SDS011;20119;48.334;16.206;2023-10-08T08:19:13;12.90;;;3.40;;
33810;SDS011;20119;48.334;16.206;2023-10-08T08:21:41;11.82;;;3.40;;
33810;SDS011;20119;48.334;16.206;2023-10-08T08:24:10;7.80;;;3.28;;
33810;SDS011;20119;48.334;16.206;2023-10-08T08:26:39;11.75;;;4.68;;
33810;SDS011;20119;48.334;16.206;2023-10-08T08:29:26;15.25;;;3.35;;
33810;SDS011;20119;48.334;16.206;2023-10-08T08:31:54;13.85;;;5.07;;
33810;SDS011;20119;48.334;16.206;2023-10-08T08:34:22;25.83;;;8.30;;
33810;SDS011;20119;48.334;16.206;2023-10-08T08:36:49;19.30;;;5.22;;
33810;SDS011;20119;48.334;16.206;2023-10-08T08:39:16;13.63;;;3.88;;
33810;SDS011;20119;48.334;16.206;2023-10-08T08:41:56;10.02;;;3.80;;
33810;SDS011;20119;48.334;16.206;2023-10-08T08:44:27;13.27;;;3.60;;
33810;SDS011;20119;48.334;16.206;2023-10-08T08:46:56;14.40;;;6.85;;
33810;SDS011;20119;48.334;16.206;2023-10-08T08:49:26;15.05;;;6.50;;
33810;SDS011;20119;48.334;16.206;2023-10-08T08:51:54;18.98;;;8.77;;
33810;SDS011;20119;48.334;16.206;2023-10-08T08:54:25;19.40;;;4.25;;
33810;SDS011;20119;48.334;16.206;2023-10-08T08:56:57;15.80;;;8.95;;
33810;SDS011;20119;48.334;16.206;2023-10-08T08:59:27;14.95;;;5.20;;
33810;SDS011;20119;48.334;16.206;2023-10-08T09:01:56;13.38;;;4.65;;
33810;SDS011;20119;48.334;16.206;2023-10-08T09:04:28;8.70;;;3.00;;
33810;SDS011;20119;48.334;16.206;2023-10-08T09:06:56;16.95;;;10.35;;
33810;SDS011;20119;48.334;16.206;2023-10-08T09:09:27;17.55;;;7.65;;
33810;SDS011;20119;48.334;16.206;2023-10-08T09:11:59;11.27;;;5.60;;
33810;SDS011;20119;48.334;16.206;2023-10-08T09:14:26;26.88;;;23.38;;
33810;SDS011;20119;48.334;16.206;2023-10-08T09:19:24;3.00;;;1.63;;
33810;SDS011;20119;48.334;16.206;2023-10-08T09:22:01;7.50;;;3.45;;
33810;SDS011;20119;48.334;16.206;2023-10-08T09:24:30;7.15;;;4.90;;
33810;SDS011;20119;48.334;16.206;2023-10-08T09:27:00;3.17;;;2.88;;
33810;SDS011;20119;48.334;16.206;2023-10-08T09:29:27;1.33;;;0.70;;
33810;SDS011;20119;48.334;16.206;2023-10-08T09:31:55;1.48;;;1.05;;
33810;SDS011;20119;48.334;16.206;2023-10-08T09:34:25;2.47;;;0.90;;
33810;SDS011;20119;48.334;16.206;2023-10-08T09:36:54;2.70;;;0.70;;
33810;SDS011;20119;48.334;16.206;2023-10-08T09:39:25;6.07;;;4.50;;
33810;SDS011;20119;48.334;16.206;2023-10-08T09:41:54;0.82;;;0.77;;
33810;SDS011;20119;48.334;16.206;2023-10-08T09:44:23;1.88;;;0.40;;
33810;SDS011;20119;48.334;16.206;2023-10-08T09:46:52;0.75;;;0.68;;
33810;SDS011;20119;48.334;16.206;2023-10-08T09:49:23;2.63;;;0.30;;
33810;SDS011;20119;48.334;16.206;2023-10-08T09:51:58;0.52;;;0.10;;
33810;SDS011;20119;48.334;16.206;2023-10-08T09:54:31;2.78;;;1.00;;
33810;SDS011;20119;48.334;16.206;2023-10-08T09:57:07;0.63;;;0.20;;
33810;SDS011;20119;48.334;16.206;2023-10-08T09:59:36;2.17;;;1.98;;
33810;SDS011;20119;48.334;16.206;2023-10-08T10:02:04;1.33;;;1.17;;
33810;SDS011;20119;48.334;16.206;2023-10-08T10:04:35;0.15;;;0.10;;
33810;SDS011;20119;48.334;16.206;2023-10-08T10:07:09;1.45;;;0.10;;
33810;SDS011;20119;48.334;16.206;2023-10-08T10:09:37;0.40;;;0.30;;
33810;SDS011;20119;48.334;16.206;2023-10-08T10:12:05;0.25;;;0.25;;
33810;SDS011;20119;48.334;16.206;2023-10-08T10:14:41;0.30;;;0.25;;
33810;SDS011;20119;48.334;16.206;2023-10-08T10:17:09;1.25;;;0.22;;
33810;SDS011;20119;48.334;16.206;2023-10-08T10:19:39;2.38;;;0.30;;
33810;SDS011;20119;48.334;16.206;2023-10-08T10:22:11;1.65;;;0.20;;
33810;SDS011;20119;48.334;16.206;2023-10-08T10:24:41;3.03;;;0.80;;
33810;SDS011;20119;48.334;16.206;2023-10-08T10:27:11;0.30;;;0.30;;
33810;SDS011;20119;48.334;16.206;2023-10-08T10:29:42;1.30;;;1.20;;
33810;SDS011;20119;48.334;16.206;2023-10-08T10:32:11;2.53;;;1.50;;
33810;SDS011;20119;48.334;16.206;2023-10-08T10:34:40;2.22;;;0.40;;
33810;SDS011;20119;48.334;16.206;2023-10-08T10:37:08;0.20;;;0.20;;
33810;SDS011;20119;48.334;16.206;2023-10-08T10:39:50;1.15;;;0.25;;
33810;SDS011;20119;48.334;16.206;2023-10-08T10:42:20;0.10;;;0.10;;
33810;SDS011;20119;48.334;16.206;2023-10-08T10:44:49;0.47;;;0.20;;
33810;SDS011;20119;48.334;16.206;2023-10-08T10:47:17;3.58;;;0.70;;
33810;SDS011;20119;48.334;16.206;2023-10-08T10:50:07;0.30;;;0.30;;
33810;SDS011;20119;48.334;16.206;2023-10-08T10:52:56;0.30;;;0.20;;
33810;SDS011;20119;48.334;16.206;2023-10-08T10:55:23;0.20;;;0.20;;
33810;SDS011;20119;48.334;16.206;2023-10-08T10:57:57;1.17;;;1.08;;
33810;SDS011;20119;48.334;16.206;2023-10-08T11:00:30;1.65;;;0.40;;
33810;SDS011;20119;48.334;16.206;2023-10-08T11:03:12;0.98;;;0.57;;
33810;SDS011;20119;48.334;16.206;2023-10-08T11:05:43;1.23;;;1.08;;
33810;SDS011;20119;48.334;16.206;2023-10-08T11:08:16;1.92;;;0.95;;
33810;SDS011;20119;48.334;16.206;2023-10-08T11:10:45;0.95;;;0.40;;
33810;SDS011;20119;48.334;16.206;2023-10-08T11:13:16;2.88;;;0.50;;
33810;SDS011;20119;48.334;16.206;2023-10-08T11:15:46;0.40;;;0.40;;
33810;SDS011;20119;48.334;16.206;2023-10-08T11:18:17;0.30;;;0.30;;
33810;SDS011;20119;48.334;16.206;2023-10-08T11:20:46;8.45;;;5.32;;
33810;SDS011;20119;48.334;16.206;2023-10-08T11:23:31;1.98;;;0.93;;
33810;SDS011;20119;48.334;16.206;2023-10-08T11:26:00;0.57;;;0.40;;
33810;SDS011;20119;48.334;16.206;2023-10-08T11:28:28;3.03;;;1.52;;
33810;SDS011;20119;48.334;16.206;2023-10-08T11:31:00;0.60;;;0.60;;
33810;SDS011;20119;48.334;16.206;2023-10-08T11:33:33;2.50;;;1.52;;
33810;SDS011;20119;48.334;16.206;2023-10-08T11:36:02;3.28;;;1.52;;
33810;SDS011;20119;48.334;16.206;2023-10-08T11:38:41;3.10;;;1.40;;
33810;SDS011;20119;48.334;16.206;2023-10-08T11:41:11;0.88;;;0.60;;
33810;SDS011;20119;48.334;16.206;2023-10-08T11:43:47;2.47;;;1.10;;
33810;SDS011;20119;48.334;16.206;2023-10-08T11:46:20;0.70;;;0.70;;
33810;SDS011;20119;48.334;16.206;2023-10-08T11:48:51;2.92;;;0.50;;
33810;SDS011;20119;48.334;16.206;2023-10-08T11:51:18;2.10;;;0.50;;
33810;SDS011;20119;48.334;16.206;2023-10-08T11:53:49;0.43;;;0.40;;
33810;SDS011;20119;48.334;16.206;2023-10-08T11:56:16;2.65;;;0.50;;
33810;SDS011;20119;48.334;16.206;2023-10-08T11:58:47;0.60;;;0.30;;
33810;SDS011;20119;48.334;16.206;2023-10-08T12:01:14;2.42;;;0.38;;
33810;SDS011;20119;48.334;16.206;2023-10-08T12:03:44;0.70;;;0.40;;
33810;SDS011;20119;48.334;16.206;2023-10-08T12:06:11;2.40;;;0.50;;
33810;SDS011;20119;48.334;16.206;2023-10-08T12:08:43;1.50;;;0.60;;
33810;SDS011;20119;48.334;16.206;2023-10-08T12:11:12;2.47;;;0.50;;
33810;SDS011;20119;48.334;16.206;2023-10-08T12:13:40;0.82;;;0.47;;
33810;SDS011;20119;48.334;16.206;2023-10-08T12:16:10;0.77;;;0.47;;
33810;SDS011;20119;48.334;16.206;2023-10-08T12:18:47;0.93;;;0.60;;
33810;SDS011;20119;48.334;16.206;2023-10-08T12:21:19;0.63;;;0.50;;
33810;SDS011;20119;48.334;16.206;2023-10-08T12:23:47;1.05;;;0.47;;
33810;SDS011;20119;48.334;16.206;2023-10-08T12:26:16;2.85;;;0.90;;
33810;SDS011;20119;48.334;16.206;2023-10-08T12:28:44;1.05;;;0.70;;
33810;SDS011;20119;48.334;16.206;2023-10-08T12:31:13;2.85;;;0.90;;
33810;SDS011;20119;48.334;16.206;2023-10-08T12:33:41;2.63;;;1.20;;
33810;SDS011;20119;48.334;16.206;2023-10-08T12:36:11;2.38;;;0.93;;
33810;SDS011;20119;48.334;16.206;2023-10-08T12:38:38;1.20;;;0.80;;
33810;SDS011;20119;48.334;16.206;2023-10-08T12:41:07;1.35;;;0.90;;
33810;SDS011;20119;48.334;16.206;2023-10-08T12:43:38;1.50;;;1.10;;
33810;SDS011;20119;48.334;16.206;2023-10-08T12:46:07;1.38;;;1.17;;
33810;SDS011;20119;48.334;16.206;2023-10-08T12:48:43;3.08;;;1.23;;
33810;SDS011;20119;48.334;16.206;2023-10-08T12:51:18;1.90;;;1.08;;
33810;SDS011;20119;48.334;16.206;2023-10-08T12:53:49;4.70;;;1.70;;
33810;SDS011;20119;48.334;16.206;2023-10-08T12:56:23;3.75;;;2.40;;
33810;SDS011;20119;48.334;16.206;2023-10-08T12:58:57;9.57;;;7.75;;
33810;SDS011;20119;48.334;16.206;2023-10-08T13:01:24;5.97;;;3.03;;
33810;SDS011;20119;48.334;16.206;2023-10-08T13:03:54;3.13;;;1.42;;
33810;SDS011;20119;48.334;16.206;2023-10-08T13:06:27;3.30;;;1.80;;
33810;SDS011;20119;48.334;16.206;2023-10-08T13:08:55;4.13;;;1.55;;
33810;SDS011;20119;48.334;16.206;2023-10-08T13:11:23;3.13;;;1.80;;
33810;SDS011;20119;48.334;16.206;2023-10-08T13:13:51;4.53;;;1.25;;
33810;SDS011;20119;48.334;16.206;2023-10-08T13:18:49;8.18;;;2.00;;
33810;SDS011;20119;48.334;16.206;2023-10-08T13:21:16;5.05;;;1.60;;
33810;SDS011;20119;48.334;16.206;2023-10-08T13:23:45;3.78;;;1.40;;
33810;SDS011;20119;48.334;16.206;2023-10-08T13:26:14;5.63;;;1.70;;
33810;SDS011;20119;48.334;16.206;2023-10-08T13:28:42;6.70;;;2.28;;
33810;SDS011;20119;48.334;16.206;2023-10-08T13:31:10;3.90;;;1.70;;
33810;SDS011;20119;48.334;16.206;2023-10-08T13:33:38;5.18;;;2.47;;
33810;SDS011;20119;48.334;16.206;2023-10-08T13:36:07;10.20;;;6.87;;
33810;SDS011;20119;48.334;16.206;2023-10-08T13:38:34;4.30;;;2.00;;
33810;SDS011;20119;48.334;16.206;2023-10-08T13:41:03;4.53;;;1.80;;
33810;SDS011;20119;48.334;16.206;2023-10-08T13:43:32;4.57;;;2.40;;
33810;SDS011;20119;48.334;16.206;2023-10-08T13:46:03;2.67;;;1.42;;
33810;SDS011;20119;48.334;16.206;2023-10-08T13:48:32;6.07;;;1.65;;
33810;SDS011;20119;48.334;16.206;2023-10-08T13:51:01;5.35;;;2.00;;
33810;SDS011;20119;48.334;16.206;2023-10-08T13:53:29;2.97;;;2.20;;
33810;SDS011;20119;48.334;16.206;2023-10-08T13:55:57;4.75;;;2.05;;
33810;SDS011;20119;48.334;16.206;2023-10-08T13:58:28;4.47;;;2.00;;
33810;SDS011;20119;48.334;16.206;2023-10-08T14:00:56;3.00;;;1.77;;
33810;SDS011;20119;48.334;16.206;2023-10-08T14:03:25;3.75;;;1.38;;
33810;SDS011;20119;48.334;16.206;2023-10-08T14:08:26;7.55;;;6.00;;
33810;SDS011;20119;48.334;16.206;2023-10-08T14:10:55;10.02;;;8.10;;
33810;SDS011;20119;48.334;16.206;2023-10-08T14:13:29;6.13;;;2.70;;
33810;SDS011;20119;48.334;16.206;2023-10-08T14:15:56;11.50;;;9.02;;
33810;SDS011;20119;48.334;16.206;2023-10-08T14:18:24;7.68;;;5.75;;
33810;SDS011;20119;48.334;16.206;2023-10-08T14:20:53;6.20;;;2.08;;
33810;SDS011;20119;48.334;16.206;2023-10-08T14:23:21;4.32;;;2.55;;
33810;SDS011;20119;48.334;16.206;2023-10-08T14:25:50;3.53;;;1.92;;
33810;SDS011;20119;48.334;16.206;2023-10-08T14:28:19;3.08;;;1.73;;
33810;SDS011;20119;48.334;16.206;2023-10-08T14:31:06;3.45;;;2.22;;
33810;SDS011;20119;48.334;16.206;2023-10-08T14:33:33;3.17;;;1.80;;
33810;SDS011;20119;48.334;16.206;2023-10-08T14:36:07;3.63;;;2.05;;
33810;SDS011;20119;48.334;16.206;2023-10-08T14:38:52;3.15;;;1.95;;
33810;SDS011;20119;48.334;16.206;2023-10-08T14:41:36;4.20;;;1.90;;
33810;SDS011;20119;48.334;16.206;2023-10-08T14:44:20;4.40;;;2.00;;
33810;SDS011;20119;48.334;16.206;2023-10-08T14:46:49;3.45;;;1.95;;
33810;SDS011;20119;48.334;16.206;2023-10-08T14:49:16;2.63;;;1.70;;
33810;SDS011;20119;48.334;16.206;2023-10-08T14:51:43;2.88;;;1.50;;
33810;SDS011;20119;48.334;16.206;2023-10-08T14:54:14;9.40;;;1.60;;
33810;SDS011;20119;48.334;16.206;2023-10-08T14:56:41;3.65;;;1.58;;
33810;SDS011;20119;48.334;16.206;2023-10-08T14:59:07;3.67;;;1.75;;
33810;SDS011;20119;48.334;16.206;2023-10-08T15:01:34;4.25;;;2.15;;
33810;SDS011;20119;48.334;16.206;2023-10-08T15:04:03;3.58;;;1.92;;
33810;SDS011;20119;48.334;16.206;2023-10-08T15:06:30;3.00;;;1.50;;
33810;SDS011;20119;48.334;16.206;2023-10-08T15:08:58;3.35;;;1.50;;
33810;SDS011;20119;48.334;16.206;2023-10-08T15:11:26;4.20;;;1.80;;